createdAt,value
2023-04-23T00:00:20.641Z,3.54
2023-04-23T00:05:27.281Z,3.35
2023-04-23T00:10:30.274Z,3.29
2023-04-23T00:15:33.259Z,3.32
2023-04-23T00:20:37.045Z,3.36
2023-04-23T00:25:39.668Z,3.38
2023-04-23T00:30:41.812Z,3.42
2023-04-23T00:35:44.472Z,3.25
2023-04-23T00:40:47.146Z,2.96
2023-04-23T00:45:51.338Z,3.10
2023-04-23T00:51:01.084Z,3.02
2023-04-23T00:56:06.336Z,3.31
2023-04-23T01:01:10.095Z,3.13
2023-04-23T01:06:12.847Z,2.72
2023-04-23T01:11:16.087Z,2.51
2023-04-23T01:16:18.835Z,2.51
2023-04-23T01:21:21.792Z,2.73
2023-04-23T01:26:25.054Z,2.49
2023-04-23T01:31:29.111Z,2.76
2023-04-23T01:36:33.516Z,2.56
2023-04-23T01:41:36.923Z,2.61
2023-04-23T01:46:39.322Z,2.59
2023-04-23T01:51:43.368Z,2.77
2023-04-23T01:56:46.071Z,2.70
2023-04-23T02:01:50.322Z,2.83
2023-04-23T02:06:53.560Z,2.88
2023-04-23T02:11:57.943Z,2.48
2023-04-23T02:17:00.619Z,2.66
2023-04-23T02:22:04.081Z,2.31
2023-04-23T02:27:06.276Z,2.24
2023-04-23T02:32:08.932Z,2.46
2023-04-23T02:37:12.444Z,2.62
2023-04-23T02:42:14.961Z,2.12
2023-04-23T02:47:17.640Z,2.20
2023-04-23T02:52:20.447Z,2.22
2023-04-23T02:57:23.344Z,2.20
2023-04-23T03:02:26.426Z,2.18
2023-04-23T03:07:28.792Z,2.19
2023-04-23T03:12:31.387Z,2.22
2023-04-23T03:17:34.618Z,1.86
2023-04-23T03:22:37.955Z,2.23
2023-04-23T03:27:44.271Z,1.98
2023-04-23T03:32:47.091Z,2.12
2023-04-23T03:37:50.217Z,1.82
2023-04-23T03:42:53.606Z,1.76
2023-04-23T03:48:03.805Z,2.18
2023-04-23T03:53:08.293Z,1.86
2023-04-23T03:58:29.493Z,2.17
2023-04-23T04:03:32.739Z,2.19
2023-04-23T04:08:35.644Z,2.13
2023-04-23T04:13:38.382Z,2.37
2023-04-23T04:18:40.694Z,2.52
2023-04-23T04:23:45.404Z,2.73
2023-04-23T04:28:48.122Z,2.64
2023-04-23T04:33:51.100Z,2.59
2023-04-23T04:38:58.933Z,2.70
2023-04-23T04:44:01.611Z,2.87
2023-04-23T04:49:04.510Z,3.13
2023-04-23T04:54:08.018Z,3.59
2023-04-23T04:59:11.286Z,4.26
2023-04-23T05:04:14.322Z,4.95
2023-04-23T05:09:17.637Z,5.55
2023-04-23T05:14:20.324Z,5.89
2023-04-23T05:19:23.875Z,5.88
2023-04-23T05:24:26.643Z,6.42
2023-04-23T05:29:29.264Z,6.80
2023-04-23T05:34:31.927Z,7.45
2023-04-23T05:39:34.646Z,8.19
2023-04-23T05:44:37.340Z,9.09
2023-04-23T05:49:40.223Z,10.82
2023-04-23T05:54:43.564Z,12.19
2023-04-23T05:59:46.487Z,14.83
2023-04-23T06:04:49.189Z,17.93
2023-04-23T06:09:52.081Z,17.90
2023-04-23T06:14:55.012Z,20.39
2023-04-23T06:19:57.750Z,22.36
2023-04-23T06:25:00.575Z,25.12
2023-04-23T06:30:03.195Z,24.99
2023-04-23T06:35:08.517Z,25.88
2023-04-23T06:40:11.821Z,27.07
2023-04-23T06:45:15.580Z,27.87
2023-04-23T06:50:18.284Z,27.86
2023-04-23T06:55:22.285Z,26.48
2023-04-23T07:00:25.523Z,27.11
2023-04-23T07:05:28.433Z,27.29
2023-04-23T07:10:31.616Z,24.75
2023-04-23T07:15:33.937Z,25.19
2023-04-23T07:20:36.861Z,23.85
2023-04-23T07:25:39.224Z,23.51
2023-04-23T07:30:41.975Z,24.91
2023-04-23T07:35:44.523Z,22.82
2023-04-23T07:40:47.969Z,22.65
2023-04-23T07:45:50.708Z,22.20
2023-04-23T07:50:54.164Z,22.03
2023-04-23T07:55:57.225Z,22.98
2023-04-23T08:00:59.925Z,23.08
2023-04-23T08:06:04.721Z,20.24
2023-04-23T08:11:26.472Z,19.00
2023-04-23T08:16:30.876Z,18.46
2023-04-23T08:21:34.257Z,18.20
2023-04-23T08:26:37.096Z,18.26
2023-04-23T08:31:39.995Z,17.94
2023-04-23T08:36:43.103Z,17.86
2023-04-23T08:41:49.604Z,18.94
2023-04-23T08:46:54.846Z,20.05
2023-04-23T08:52:05.729Z,21.94
2023-04-23T08:57:10.207Z,23.36
2023-04-23T09:02:13.170Z,23.95
2023-04-23T09:07:17.994Z,24.25
2023-04-23T09:12:22.105Z,24.53
2023-04-23T09:17:30.008Z,24.21
2023-04-23T09:22:48.362Z,23.98
2023-04-23T09:27:53.098Z,21.56
2023-04-23T09:32:56.087Z,20.28
2023-04-23T09:37:58.914Z,20.39
2023-04-23T09:43:05.049Z,18.24
2023-04-23T09:48:07.764Z,18.02
2023-04-23T09:53:11.097Z,18.04
2023-04-23T09:58:15.921Z,18.53
2023-04-23T10:03:27.983Z,17.50
2023-04-23T10:08:32.646Z,16.69
2023-04-23T10:13:38.586Z,17.11
2023-04-23T10:18:41.393Z,17.20
2023-04-23T10:23:47.634Z,17.07
2023-04-23T10:28:55.087Z,17.46
2023-04-23T10:33:59.687Z,17.14
2023-04-23T10:39:07.994Z,17.02
2023-04-23T10:44:16.129Z,18.34
2023-04-23T10:49:18.950Z,19.64
2023-04-23T10:54:21.562Z,20.52
2023-04-23T10:59:24.338Z,21.51
2023-04-23T11:04:29.483Z,20.68
2023-04-23T11:09:35.037Z,20.91
2023-04-23T11:14:43.275Z,19.56
2023-04-23T11:20:22.426Z,19.33
2023-04-23T11:25:27.433Z,18.40
2023-04-23T11:30:30.912Z,18.45
2023-04-23T11:35:40.816Z,18.96
2023-04-23T11:40:48.656Z,19.09
2023-04-23T11:45:51.089Z,18.18
2023-04-23T11:50:53.776Z,18.16
2023-04-23T11:55:56.582Z,17.93
2023-04-23T12:01:02.855Z,18.07
2023-04-23T12:06:05.845Z,17.80
2023-04-23T12:11:08.980Z,18.14
2023-04-23T12:16:11.411Z,18.73
2023-04-23T12:21:15.311Z,18.93
2023-04-23T12:26:20.593Z,18.92
2023-04-23T12:31:32.546Z,19.04
2023-04-23T12:36:36.920Z,18.71
2023-04-23T12:41:39.808Z,18.35
2023-04-23T12:46:42.547Z,18.17
2023-04-23T12:51:45.234Z,18.34
2023-04-23T12:56:47.932Z,18.26
2023-04-23T13:01:51.533Z,17.64
2023-04-23T13:06:54.772Z,16.91
2023-04-23T13:11:57.688Z,16.94
2023-04-23T13:17:00.519Z,16.19
2023-04-23T13:22:04.974Z,16.38
2023-04-23T13:27:07.964Z,16.15
2023-04-23T13:32:10.780Z,15.79
2023-04-23T13:37:13.584Z,15.62
2023-04-23T13:42:16.250Z,14.89
2023-04-23T13:47:18.647Z,15.10
2023-04-23T13:52:21.287Z,14.54
2023-04-23T13:57:24.193Z,14.24
2023-04-23T14:02:27.131Z,13.90
2023-04-23T14:07:29.535Z,13.59
2023-04-23T14:12:32.834Z,13.07
2023-04-23T14:17:37.428Z,13.03
2023-04-23T14:22:41.033Z,12.96
2023-04-23T14:27:47.647Z,13.00
2023-04-23T14:32:50.611Z,13.27
2023-04-23T14:37:53.381Z,13.69
2023-04-23T14:43:01.895Z,14.19
2023-04-23T14:48:10.925Z,14.52
2023-04-23T14:53:13.627Z,14.76
2023-04-23T14:58:16.221Z,14.74
2023-04-23T15:03:19.181Z,15.23
2023-04-23T15:08:21.858Z,15.43
2023-04-23T15:13:29.258Z,15.51
2023-04-23T15:18:34.015Z,15.73
2023-04-23T15:23:36.683Z,15.51
2023-04-23T15:28:39.373Z,15.12
2023-04-23T15:33:42.129Z,15.64
2023-04-23T15:38:44.495Z,15.98
2023-04-23T15:43:49.035Z,16.04
2023-04-23T15:48:51.749Z,15.74
2023-04-23T15:53:54.429Z,15.55
2023-04-23T15:58:57.292Z,15.51
2023-04-23T16:04:09.521Z,15.44
2023-04-23T16:09:13.336Z,14.93
2023-04-23T16:14:16.002Z,14.49
2023-04-23T16:19:18.569Z,14.47
2023-04-23T16:24:23.372Z,14.33
2023-04-23T16:29:25.713Z,13.96
2023-04-23T16:34:28.309Z,13.76
2023-04-23T16:39:31.263Z,13.71
2023-04-23T16:44:33.960Z,13.22
2023-04-23T16:49:36.992Z,12.88
2023-04-23T16:54:39.579Z,12.63
2023-04-23T16:59:42.394Z,12.42
2023-04-23T17:04:48.445Z,12.23
2023-04-23T17:09:50.956Z,11.85
2023-04-23T17:14:53.576Z,11.43
2023-04-23T17:19:56.329Z,11.14
2023-04-23T17:24:59.092Z,10.51
2023-04-23T17:30:01.756Z,10.40
2023-04-23T17:35:10.244Z,10.04
2023-04-23T17:40:13.476Z,9.72
2023-04-23T17:45:17.594Z,9.51
2023-04-23T17:50:20.796Z,9.32
2023-04-23T17:55:23.751Z,9.33
2023-04-23T18:00:28.739Z,8.86
2023-04-23T18:05:31.663Z,8.77
2023-04-23T18:10:34.649Z,8.54
2023-04-23T18:15:37.929Z,8.31
2023-04-23T18:20:40.672Z,8.25
2023-04-23T18:25:43.354Z,8.01
2023-04-23T18:30:48.861Z,7.69
2023-04-23T18:35:59.524Z,7.65
2023-04-23T18:41:04.884Z,7.66
2023-04-23T18:46:07.651Z,7.59
2023-04-23T18:51:10.517Z,7.60
2023-04-23T18:56:17.572Z,7.18
2023-04-23T19:01:21.049Z,6.94
2023-04-23T19:13:15.960Z,6.98
2023-04-23T19:18:19.032Z,6.93
2023-04-23T19:23:21.712Z,6.79
2023-04-23T19:28:34.752Z,6.73
2023-04-23T19:33:37.690Z,6.81
2023-04-23T19:38:40.961Z,6.66
2023-04-23T19:43:43.381Z,6.25
2023-04-23T19:48:46.009Z,6.38
2023-04-23T19:53:48.648Z,6.21
2023-04-23T19:58:51.436Z,6.26
2023-04-23T20:04:07.620Z,6.04
2023-04-23T20:09:18.525Z,6.14
2023-04-23T20:14:24.945Z,5.87
2023-04-23T20:19:27.883Z,5.74
2023-04-23T20:24:34.061Z,5.75
2023-04-23T20:29:37.062Z,5.56
2023-04-23T20:34:39.783Z,5.31
2023-04-23T20:39:43.178Z,5.29
2023-04-23T20:44:47.374Z,5.27
2023-04-23T20:49:50.163Z,5.26
2023-04-23T20:54:55.513Z,5.14
2023-04-23T21:00:11.963Z,5.13
2023-04-23T21:05:14.846Z,5.08
2023-04-23T21:10:17.596Z,5.23
2023-04-23T21:15:20.424Z,5.13
2023-04-23T21:20:23.160Z,5.19
2023-04-23T21:25:27.051Z,4.93
2023-04-23T21:30:43.285Z,5.11
2023-04-23T21:35:46.577Z,4.97
2023-04-23T21:40:49.196Z,4.73
2023-04-23T21:45:51.400Z,4.73
2023-04-23T21:50:54.083Z,4.71
2023-04-23T21:55:56.599Z,4.69
2023-04-23T22:00:59.161Z,4.72
2023-04-23T22:06:05.075Z,4.72
2023-04-23T22:11:11.695Z,4.84
2023-04-23T22:16:27.482Z,5.06
2023-04-23T22:21:31.493Z,4.97
2023-04-23T22:26:36.279Z,5.01
2023-04-23T22:31:39.033Z,4.91
2023-04-23T22:36:43.532Z,4.93
2023-04-23T22:41:46.289Z,4.93
2023-04-23T22:46:49.017Z,4.96
2023-04-23T22:51:51.594Z,4.98
2023-04-23T22:56:54.294Z,4.96
2023-04-23T23:01:56.797Z,4.80
2023-04-23T23:06:59.540Z,4.92
2023-04-23T23:12:03.573Z,4.96
2023-04-23T23:17:06.631Z,4.78
2023-04-23T23:22:09.475Z,4.69
2023-04-23T23:27:12.054Z,4.85
2023-04-23T23:32:14.793Z,4.20
2023-04-23T23:37:47.320Z,4.50
2023-04-23T23:42:49.952Z,4.32
2023-04-23T23:47:52.554Z,4.17
2023-04-23T23:52:55.288Z,4.30
2023-04-23T23:57:57.833Z,4.17
